Time;durP1;ratioP1;P1;durP2;ratioP2;P2;SDS_P1;SDS_P2;PMS_P1;PMS_P2;Temp;Humidity;BMP_temperature;BMP_pressure;BME280_temperature;BME280_humidity;BME280_pressure;Samples;Min_cycle;Max_cycle;Signal;HPM_P1;HPM_P2
2022/11/19 00:02:00;;;;;;;11.93;9.90;;;1.70;99.90;;;;;;5027866;28;20688;-80
2022/11/19 00:04:27;;;;;;;12.57;10.32;;;1.70;99.90;;;;;;5028114;28;20342;-79
2022/11/19 00:06:56;;;;;;;14.52;10.30;;;1.70;99.90;;;;;;5022160;28;20725;-80
2022/11/19 00:09:23;;;;;;;11.25;9.43;;;1.70;99.90;;;;;;5023379;28;20694;-77
2022/11/19 00:14:35;;;;;;;11.90;10.50;;;1.70;99.90;;;;;;5032500;28;20240;-79
2022/11/19 00:17:02;;;;;;;12.77;9.60;;;1.70;99.90;;;;;;5024021;28;20315;-76
2022/11/19 00:19:29;;;;;;;12.43;11.13;;;1.70;99.90;;;;;;5020912;28;20319;-80
2022/11/19 00:21:57;;;;;;;13.02;10.40;;;1.70;99.90;;;;;;5025084;28;20226;-77
2022/11/19 00:24:27;;;;;;;14.02;9.60;;;1.70;99.90;;;;;;5027849;28;20256;-80
2022/11/19 00:26:55;;;;;;;11.80;10.38;;;1.70;99.90;;;;;;5021522;28;20719;-77
2022/11/19 00:29:22;;;;;;;11.52;8.98;;;1.70;99.90;;;;;;5036699;28;20233;-80
2022/11/19 00:31:49;;;;;;;11.27;9.13;;;1.70;99.90;;;;;;5025542;28;20291;-77
2022/11/19 00:34:16;;;;;;;11.50;10.40;;;1.70;99.90;;;;;;5029819;28;20565;-77
2022/11/19 00:36:49;;;;;;;13.82;9.88;;;1.70;99.90;;;;;;5013598;28;20644;-77
2022/11/19 00:39:19;;;;;;;15.02;10.52;;;1.70;99.90;;;;;;5029878;28;20672;-77
2022/11/19 00:41:46;;;;;;;17.70;9.48;;;1.70;99.90;;;;;;5027561;28;20260;-75
2022/11/19 00:47:25;;;;;;;11.43;9.35;;;1.70;99.90;;;;;;5001516;28;20253;-76
2022/11/19 00:49:55;;;;;;;14.43;11.15;;;1.70;99.90;;;;;;5034115;28;20256;-76
2022/11/19 00:53:09;;;;;;;12.55;9.90;;;1.70;99.90;;;;;;5034861;28;20234;-78
2022/11/19 00:55:39;;;;;;;14.20;11.85;;;1.70;99.90;;;;;;5020239;28;20221;-76
2022/11/19 00:58:35;;;;;;;14.07;11.82;;;1.70;99.90;;;;;;5024418;28;20257;-76
2022/11/19 01:01:03;;;;;;;13.00;11.52;;;1.70;99.90;;;;;;5025645;28;20283;-81
2022/11/19 01:03:33;;;;;;;12.20;10.65;;;1.70;99.90;;;;;;5032108;28;20217;-77
2022/11/19 01:06:01;;;;;;;14.95;11.95;;;1.60;99.90;;;;;;5021817;28;20226;-76
2022/11/19 01:08:29;;;;;;;15.68;11.95;;;1.60;99.90;;;;;;5027837;28;20536;-76
2022/11/19 01:11:06;;;;;;;16.00;12.35;;;1.70;99.90;;;;;;5026705;28;20694;-81
2022/11/19 01:13:37;;;;;;;14.45;11.38;;;1.70;99.90;;;;;;5025298;28;20562;-81
2022/11/19 01:16:07;;;;;;;14.85;11.50;;;1.70;99.90;;;;;;5020974;28;20278;-77
2022/11/19 01:18:36;;;;;;;15.45;12.10;;;1.60;99.90;;;;;;5024418;28;20232;-76
2022/11/19 01:21:04;;;;;;;14.30;10.70;;;1.70;99.90;;;;;;5028170;28;20626;-76
2022/11/19 01:23:32;;;;;;;12.23;11.02;;;1.70;99.90;;;;;;5030864;28;20233;-77
2022/11/19 01:26:00;;;;;;;11.73;10.52;;;1.70;99.90;;;;;;5019797;28;20218;-80
2022/11/19 01:28:27;;;;;;;15.10;11.48;;;1.70;99.90;;;;;;5023770;28;20233;-79
2022/11/19 01:30:56;;;;;;;13.82;11.50;;;1.70;99.90;;;;;;5031534;28;20221;-80
2022/11/19 01:33:24;;;;;;;12.77;11.13;;;1.70;99.90;;;;;;5021546;28;20303;-76
2022/11/19 01:35:58;;;;;;;15.18;11.65;;;1.70;99.90;;;;;;5024345;28;20221;-80
2022/11/19 01:38:26;;;;;;;13.75;11.50;;;1.70;99.90;;;;;;5022605;28;20304;-80
2022/11/19 01:40:53;;;;;;;15.00;11.73;;;1.70;99.90;;;;;;5026626;28;20283;-79
2022/11/19 01:43:36;;;;;;;14.45;10.70;;;1.60;99.90;;;;;;5023386;28;20344;-76
2022/11/19 01:46:04;;;;;;;14.82;12.60;;;1.60;99.90;;;;;;5023380;28;20752;-76
2022/11/19 01:48:35;;;;;;;11.50;10.45;;;1.60;99.90;;;;;;5022069;28;20276;-80
2022/11/19 01:51:05;;;;;;;13.05;10.95;;;1.60;99.90;;;;;;5020295;28;20229;-77
2022/11/19 01:53:35;;;;;;;13.50;10.77;;;1.60;99.90;;;;;;5018268;28;20544;-76
2022/11/19 01:56:04;;;;;;;11.75;10.60;;;1.60;99.90;;;;;;5033031;28;20564;-76
2022/11/19 01:58:36;;;;;;;12.40;10.45;;;1.50;99.90;;;;;;5030110;28;20221;-77
2022/11/19 02:01:03;;;;;;;13.18;11.80;;;1.50;99.90;;;;;;5023621;28;20235;-76
2022/11/19 02:03:32;;;;;;;12.10;10.85;;;1.50;99.90;;;;;;5028832;28;20598;-76
2022/11/19 02:06:01;;;;;;;12.32;10.35;;;1.40;99.90;;;;;;5023053;28;20588;-80
2022/11/19 02:08:38;;;;;;;14.23;12.30;;;1.40;99.90;;;;;;5018705;28;20679;-80
2022/11/19 02:11:30;;;;;;;11.52;10.32;;;1.40;99.90;;;;;;5031762;28;20251;-76
2022/11/19 02:14:13;;;;;;;14.05;10.85;;;1.30;99.90;;;;;;5021181;28;20225;-76
2022/11/19 02:16:51;;;;;;;15.75;10.23;;;1.30;99.90;;;;;;5019379;28;20232;-81
2022/11/19 02:19:37;;;;;;;11.68;9.80;;;1.30;99.90;;;;;;5021240;28;20229;-76
2022/11/19 02:22:17;;;;;;;10.60;9.50;;;1.20;99.90;;;;;;5022927;28;21144;-80
2022/11/19 02:24:51;;;;;;;11.73;10.48;;;1.20;99.90;;;;;;5029429;28;20233;-76
2022/11/19 02:27:56;;;;;;;9.95;8.90;;;1.20;99.90;;;;;;5026796;28;20224;-76
2022/11/19 02:30:25;;;;;;;10.52;9.43;;;1.20;99.90;;;;;;5033763;28;20233;-77
2022/11/19 02:33:04;;;;;;;11.48;10.38;;;1.10;99.90;;;;;;5022362;28;20249;-82
2022/11/19 02:35:42;;;;;;;12.27;10.43;;;1.10;99.90;;;;;;5028296;28;20216;-81
2022/11/19 02:38:18;;;;;;;10.95;8.93;;;1.10;99.90;;;;;;5023260;28;20232;-82
2022/11/19 02:40:49;;;;;;;11.13;9.52;;;1.10;99.90;;;;;;5034598;28;20221;-81
2022/11/19 02:43:21;;;;;;;9.75;8.13;;;1.10;99.90;;;;;;5029966;28;20225;-77
2022/11/19 02:45:53;;;;;;;8.93;7.72;;;1.10;99.90;;;;;;5023559;28;20276;-80
2022/11/19 02:48:25;;;;;;;14.27;10.27;;;1.10;99.90;;;;;;5027145;28;20283;-77
2022/11/19 02:50:57;;;;;;;10.45;8.73;;;1.10;99.90;;;;;;5022645;28;20221;-76
2022/11/19 02:53:24;;;;;;;12.00;9.10;;;1.20;99.90;;;;;;5024829;28;20238;-81
2022/11/19 02:56:13;;;;;;;9.50;7.82;;;1.20;99.90;;;;;;5035524;28;20245;-77
2022/11/19 03:04:31;;;;;;;9.25;7.93;;;1.10;99.90;;;;;;4998914;28;20238;-81
2022/11/19 03:07:04;;;;;;;9.25;8.15;;;1.10;99.90;;;;;;5035793;28;20229;-81
2022/11/19 03:09:33;;;;;;;10.98;9.15;;;1.10;99.90;;;;;;5025097;28;20234;-81
2022/11/19 03:12:10;;;;;;;9.02;8.10;;;1.10;99.90;;;;;;5024475;28;20217;-81
2022/11/19 03:17:42;;;;;;;11.10;7.53;;;1.10;99.90;;;;;;5036145;28;20247;-78
2022/11/19 03:20:21;;;;;;;10.20;7.53;;;1.10;99.90;;;;;;5025668;28;20252;-82
2022/11/19 03:22:53;;;;;;;9.95;8.15;;;1.10;99.90;;;;;;5035234;28;20244;-81
2022/11/19 03:25:26;;;;;;;8.55;7.75;;;1.10;99.90;;;;;;5033959;28;20606;-81
2022/11/19 03:27:58;;;;;;;8.75;7.85;;;1.10;99.90;;;;;;5024216;28;20221;-77
2022/11/19 03:30:27;;;;;;;8.63;7.47;;;1.20;99.90;;;;;;5038101;28;20542;-77
2022/11/19 03:33:02;;;;;;;9.20;7.50;;;1.20;99.90;;;;;;5018630;28;20229;-76
2022/11/19 03:35:32;;;;;;;12.38;8.85;;;1.20;99.90;;;;;;5023112;28;20230;-82
2022/11/19 03:38:03;;;;;;;11.95;9.45;;;1.20;99.90;;;;;;5037051;28;20224;-77
2022/11/19 03:40:33;;;;;;;8.80;7.60;;;1.20;99.90;;;;;;5037232;28;20291;-77
2022/11/19 03:43:03;;;;;;;9.23;7.90;;;1.20;99.90;;;;;;5043143;28;20243;-80
2022/11/19 03:45:38;;;;;;;10.43;7.95;;;1.20;99.90;;;;;;5034396;28;20243;-82
2022/11/19 03:48:07;;;;;;;9.68;8.10;;;1.20;99.90;;;;;;5036578;28;20244;-76
2022/11/19 03:50:43;;;;;;;15.77;12.00;;;1.20;99.90;;;;;;5019802;28;20246;-77
2022/11/19 03:53:10;;;;;;;10.93;9.05;;;1.20;99.90;;;;;;5024258;28;20238;-81
2022/11/19 03:55:44;;;;;;;10.95;9.27;;;1.30;99.90;;;;;;5038429;28;20229;-77
2022/11/19 03:58:12;;;;;;;10.80;9.73;;;1.30;99.90;;;;;;5034937;28;20690;-77
2022/11/19 04:00:39;;;;;;;11.40;8.60;;;1.30;99.90;;;;;;5038789;28;20221;-80
2022/11/19 04:03:07;;;;;;;14.60;10.50;;;1.30;99.90;;;;;;5048780;28;20236;-81
2022/11/19 04:05:35;;;;;;;10.35;9.30;;;1.30;99.90;;;;;;5049498;28;20285;-81
2022/11/19 04:08:04;;;;;;;12.57;9.18;;;1.30;99.90;;;;;;5043168;28;20225;-77
2022/11/19 04:10:31;;;;;;;13.63;10.00;;;1.30;99.90;;;;;;5043616;28;20232;-77
2022/11/19 04:12:58;;;;;;;12.48;9.00;;;1.30;99.90;;;;;;5044314;28;20240;-77
2022/11/19 04:15:26;;;;;;;11.68;9.00;;;1.30;99.90;;;;;;5041420;28;20229;-77
2022/11/19 04:17:53;;;;;;;12.90;9.70;;;1.30;99.90;;;;;;5041637;28;20708;-82
2022/11/19 04:20:21;;;;;;;9.85;8.75;;;1.30;99.90;;;;;;5048998;28;20251;-82
2022/11/19 04:22:51;;;;;;;13.68;11.40;;;1.30;99.90;;;;;;5044896;28;20550;-79
2022/11/19 04:25:18;;;;;;;14.55;10.18;;;1.30;99.90;;;;;;5042037;28;20536;-78
2022/11/19 04:27:49;;;;;;;11.88;9.68;;;1.30;99.90;;;;;;5044023;28;20275;-81
2022/11/19 04:30:16;;;;;;;10.65;9.25;;;1.20;99.90;;;;;;5041670;28;20221;-77
2022/11/19 04:32:44;;;;;;;10.60;8.32;;;1.30;99.90;;;;;;5034693;28;20229;-77
2022/11/19 04:35:12;;;;;;;9.73;8.73;;;1.30;99.90;;;;;;5035825;28;20225;-77
2022/11/19 04:37:42;;;;;;;9.07;8.18;;;1.30;99.90;;;;;;5035578;28;20221;-77
2022/11/19 04:40:10;;;;;;;10.93;8.05;;;1.30;99.90;;;;;;5035267;28;20543;-79
2022/11/19 04:42:37;;;;;;;10.88;9.50;;;1.30;99.90;;;;;;5040288;28;20316;-81
2022/11/19 04:45:06;;;;;;;8.52;7.53;;;1.30;99.90;;;;;;5041540;28;20255;-81
2022/11/19 04:47:35;;;;;;;9.85;8.25;;;1.30;99.90;;;;;;5017814;28;20681;-81
2022/11/19 04:50:02;;;;;;;11.82;9.02;;;1.30;99.90;;;;;;5035236;28;20320;-82
2022/11/19 04:52:31;;;;;;;10.10;7.40;;;1.30;99.90;;;;;;5035474;28;20239;-82
2022/11/19 04:55:00;;;;;;;10.93;8.90;;;1.30;99.90;;;;;;5036380;28;20248;-82
2022/11/19 04:57:27;;;;;;;11.38;8.60;;;1.30;99.90;;;;;;5034276;28;20738;-82
2022/11/19 04:59:54;;;;;;;10.30;8.20;;;1.30;99.90;;;;;;5034793;28;20225;-82
2022/11/19 05:02:22;;;;;;;10.07;8.98;;;1.30;99.90;;;;;;5033216;28;20228;-78
2022/11/19 05:04:53;;;;;;;9.85;8.30;;;1.30;99.90;;;;;;5034164;28;20226;-78
2022/11/19 05:07:20;;;;;;;18.30;8.48;;;1.30;99.90;;;;;;5031903;28;20727;-80
2022/11/19 05:09:47;;;;;;;13.82;9.80;;;1.30;99.90;;;;;;5034057;28;20229;-81
2022/11/19 05:12:19;;;;;;;11.65;9.23;;;1.30;99.90;;;;;;5032969;28;20254;-77
2022/11/19 05:14:46;;;;;;;10.70;8.80;;;1.20;99.90;;;;;;5033596;28;20611;-80
2022/11/19 05:17:13;;;;;;;9.98;8.98;;;1.30;99.90;;;;;;5033767;28;20218;-81
2022/11/19 05:19:45;;;;;;;11.23;9.02;;;1.30;99.90;;;;;;5034085;28;20229;-80
2022/11/19 05:22:12;;;;;;;11.57;8.60;;;1.20;99.90;;;;;;5033967;28;20221;-80
2022/11/19 05:24:39;;;;;;;11.07;8.57;;;1.20;99.90;;;;;;5032593;28;20249;-81
2022/11/19 05:27:09;;;;;;;13.65;10.30;;;1.20;99.90;;;;;;5033955;28;20237;-80
2022/11/19 05:29:38;;;;;;;12.45;9.63;;;1.20;99.90;;;;;;5033611;28;20675;-81
2022/11/19 05:32:05;;;;;;;11.38;7.97;;;1.20;99.90;;;;;;5033946;28;20221;-81
2022/11/19 05:34:32;;;;;;;10.32;8.70;;;1.20;99.90;;;;;;5033441;28;20230;-80
2022/11/19 05:37:02;;;;;;;12.65;9.48;;;1.20;99.90;;;;;;5032921;28;20276;-76
2022/11/19 05:39:29;;;;;;;14.88;9.55;;;1.20;99.90;;;;;;5030701;28;20222;-80
2022/11/19 05:41:56;;;;;;;11.13;8.70;;;1.20;99.90;;;;;;5033871;28;20244;-80
2022/11/19 05:44:23;;;;;;;10.70;8.43;;;1.20;99.90;;;;;;5024516;28;20222;-80
2022/11/19 05:46:52;;;;;;;9.30;7.90;;;1.20;99.90;;;;;;5033338;28;20282;-81
2022/11/19 05:49:21;;;;;;;9.70;7.18;;;1.10;99.90;;;;;;5033189;28;20245;-80
2022/11/19 05:51:49;;;;;;;9.75;7.88;;;1.10;99.90;;;;;;5032751;28;20531;-77
2022/11/19 05:54:16;;;;;;;9.32;7.53;;;1.10;99.90;;;;;;5031876;28;20347;-77
2022/11/19 05:56:43;;;;;;;9.38;7.30;;;1.10;99.90;;;;;;5032354;28;20225;-80
2022/11/19 05:59:10;;;;;;;10.15;8.10;;;1.20;99.90;;;;;;5033769;28;20255;-81
2022/11/19 06:01:37;;;;;;;8.65;7.18;;;1.10;99.90;;;;;;5032800;28;20299;-77
2022/11/19 06:04:06;;;;;;;7.68;6.50;;;1.10;99.90;;;;;;5031731;28;20233;-77
2022/11/19 06:06:33;;;;;;;9.30;6.45;;;1.10;99.90;;;;;;5031434;28;20249;-80
2022/11/19 06:09:00;;;;;;;11.25;7.28;;;1.10;99.90;;;;;;5021464;28;20633;-81
2022/11/19 06:14:12;;;;;;;9.88;6.97;;;1.10;99.90;;;;;;5033367;28;20561;-79
2022/11/19 06:16:39;;;;;;;9.75;7.32;;;1.20;99.90;;;;;;5033270;28;20299;-80
2022/11/19 06:19:07;;;;;;;11.27;7.40;;;1.10;99.90;;;;;;5032669;28;20635;-81
2022/11/19 06:21:35;;;;;;;9.35;7.15;;;1.10;99.90;;;;;;5032713;28;20307;-77
2022/11/19 06:24:02;;;;;;;7.50;6.78;;;1.10;99.90;;;;;;5033112;28;20232;-80
2022/11/19 06:26:30;;;;;;;6.10;5.50;;;1.20;99.90;;;;;;5032548;28;20228;-80
2022/11/19 06:28:58;;;;;;;8.55;6.28;;;1.10;99.90;;;;;;5032594;28;20221;-77
2022/11/19 06:31:27;;;;;;;12.05;9.20;;;1.10;99.90;;;;;;5023747;28;20384;-78
2022/11/19 06:33:54;;;;;;;6.95;6.25;;;1.10;99.90;;;;;;5032965;28;20233;-77
2022/11/19 06:36:23;;;;;;;9.00;7.93;;;1.10;99.90;;;;;;5032719;28;20651;-76
2022/11/19 06:38:51;;;;;;;9.82;7.40;;;1.10;99.90;;;;;;5032320;28;20562;-77
2022/11/19 06:41:18;;;;;;;10.00;8.00;;;1.10;99.90;;;;;;5032504;28;20658;-76
2022/11/19 06:43:46;;;;;;;8.18;7.07;;;1.10;99.90;;;;;;5032959;28;20225;-78
2022/11/19 06:46:13;;;;;;;8.27;7.50;;;1.10;99.90;;;;;;5032041;28;20309;-75
2022/11/19 06:48:44;;;;;;;7.57;6.57;;;1.10;99.90;;;;;;5032970;28;20299;-77
2022/11/19 06:51:11;;;;;;;9.32;7.20;;;1.10;99.90;;;;;;5031486;28;20304;-77
2022/11/19 06:53:40;;;;;;;9.70;7.18;;;1.10;99.90;;;;;;5033032;28;20225;-81
2022/11/19 06:56:09;;;;;;;8.23;7.32;;;1.10;99.90;;;;;;5031961;28;20737;-81
2022/11/19 06:58:37;;;;;;;8.57;7.32;;;1.20;99.90;;;;;;5032482;28;20229;-79
2022/11/19 07:01:04;;;;;;;8.43;6.85;;;1.20;99.90;;;;;;5032333;28;20640;-80
2022/11/19 07:03:31;;;;;;;7.03;6.43;;;1.20;99.90;;;;;;5032148;28;20322;-76
2022/11/19 07:06:00;;;;;;;7.57;6.78;;;1.20;99.90;;;;;;5032267;28;20252;-77
2022/11/19 07:08:30;;;;;;;11.57;7.90;;;1.20;99.90;;;;;;5036420;28;20225;-81
2022/11/19 07:10:58;;;;;;;9.90;8.23;;;1.20;99.90;;;;;;5035629;28;20225;-81
2022/11/19 07:13:56;;;;;;;9.32;8.18;;;1.30;99.90;;;;;;5036115;28;20613;-80
2022/11/19 07:16:13;;;;;;;10.20;8.55;;;1.30;99.90;;;;;;5034264;28;20221;-80
2022/11/19 07:18:40;;;;;;;8.85;7.82;;;1.40;99.90;;;;;;5035801;28;20571;-77
2022/11/19 07:21:07;;;;;;;9.05;7.78;;;1.40;99.90;;;;;;5035809;28;20226;-81
2022/11/19 07:23:34;;;;;;;9.73;7.22;;;1.40;99.90;;;;;;5036127;28;20295;-81
2022/11/19 07:26:03;;;;;;;7.97;7.18;;;1.40;99.90;;;;;;5035929;28;20236;-81
2022/11/19 07:28:30;;;;;;;7.78;7.05;;;1.40;99.90;;;;;;5035291;28;20222;-81
2022/11/19 07:30:57;;;;;;;8.30;7.50;;;1.40;99.90;;;;;;5035647;28;20217;-81
2022/11/19 07:33:24;;;;;;;9.07;8.27;;;1.50;99.90;;;;;;5034745;28;20275;-80
2022/11/19 07:35:52;;;;;;;8.25;7.45;;;1.50;99.90;;;;;;5035800;28;20343;-78
2022/11/19 07:38:19;;;;;;;7.20;6.50;;;1.50;99.90;;;;;;5035470;28;20662;-81
2022/11/19 07:40:53;;;;;;;12.80;8.30;;;1.60;99.90;;;;;;5036148;28;20300;-77
2022/11/19 07:43:21;;;;;;;8.68;7.00;;;1.60;99.90;;;;;;5035867;28;20538;-81
2022/11/19 07:45:49;;;;;;;13.45;9.27;;;1.70;99.90;;;;;;5035411;28;20225;-77
2022/11/19 07:48:16;;;;;;;9.13;8.00;;;1.70;99.90;;;;;;5034846;28;20229;-77
2022/11/19 07:50:44;;;;;;;7.50;6.78;;;1.70;99.90;;;;;;5034903;28;20225;-77
2022/11/19 07:53:12;;;;;;;11.68;7.93;;;1.80;99.90;;;;;;5034806;28;20232;-78
2022/11/19 07:55:40;;;;;;;7.82;6.50;;;1.80;99.90;;;;;;5035435;28;20528;-81
2022/11/19 07:58:08;;;;;;;7.97;7.03;;;1.90;99.90;;;;;;5035438;28;20225;-81
2022/11/19 08:00:40;;;;;;;7.57;6.47;;;1.90;99.90;;;;;;5035261;28;20229;-81
2022/11/19 08:03:10;;;;;;;11.77;8.55;;;2.00;99.90;;;;;;5043806;28;20231;-81
2022/11/19 08:05:41;;;;;;;8.95;8.05;;;2.00;99.90;;;;;;5035465;28;20256;-77
2022/11/19 08:08:09;;;;;;;7.78;6.90;;;2.00;99.90;;;;;;5034612;28;20701;-77
2022/11/19 08:10:37;;;;;;;7.10;6.38;;;2.10;99.90;;;;;;5034189;28;20225;-77
2022/11/19 08:13:05;;;;;;;8.43;6.78;;;2.20;99.90;;;;;;5033994;28;20291;-77
2022/11/19 08:15:34;;;;;;;8.35;7.07;;;2.20;99.90;;;;;;5025545;28;20706;-81
2022/11/19 08:18:11;;;;;;;7.75;6.95;;;2.30;99.90;;;;;;5032758;28;20257;-81
2022/11/19 08:20:40;;;;;;;8.15;6.97;;;2.30;99.90;;;;;;5035084;28;20249;-81
2022/11/19 08:23:09;;;;;;;8.45;7.57;;;2.30;99.90;;;;;;5034153;28;20280;-77
2022/11/19 08:25:37;;;;;;;9.32;7.32;;;2.40;99.90;;;;;;5034063;28;20240;-77
2022/11/19 08:28:05;;;;;;;8.95;6.30;;;2.40;99.90;;;;;;5034650;28;20234;-81
2022/11/19 08:30:34;;;;;;;9.75;8.75;;;2.50;99.90;;;;;;5034724;28;20236;-77
2022/11/19 08:33:05;;;;;;;8.38;6.75;;;2.50;99.90;;;;;;5034376;28;20237;-81
2022/11/19 08:35:33;;;;;;;7.50;6.80;;;2.60;99.90;;;;;;5034874;28;20225;-77
2022/11/19 08:38:01;;;;;;;7.18;6.47;;;2.60;99.90;;;;;;5033975;28;20226;-77
2022/11/19 08:40:30;;;;;;;7.28;6.53;;;2.70;99.90;;;;;;5024074;28;20235;-77
2022/11/19 08:42:59;;;;;;;10.27;7.55;;;2.70;99.90;;;;;;5033929;28;20678;-80
2022/11/19 08:45:30;;;;;;;8.70;7.18;;;2.80;99.90;;;;;;5034047;28;20310;-77
2022/11/19 08:47:59;;;;;;;8.85;6.63;;;2.80;99.90;;;;;;5034228;28;20224;-77
2022/11/19 08:50:30;;;;;;;7.82;5.78;;;2.80;99.90;;;;;;5033160;28;20237;-77
2022/11/19 08:53:00;;;;;;;4.78;4.15;;;2.90;99.90;;;;;;5034198;28;20225;-77
2022/11/19 08:55:30;;;;;;;7.85;6.05;;;3.00;99.90;;;;;;5032832;28;20225;-81
2022/11/19 08:58:02;;;;;;;9.18;7.95;;;3.00;99.90;;;;;;5033619;28;20311;-77
2022/11/19 09:00:35;;;;;;;7.35;6.32;;;3.10;99.90;;;;;;5032927;28;20229;-77
2022/11/19 09:03:03;;;;;;;10.73;7.47;;;3.10;99.90;;;;;;5033865;28;20632;-78
2022/11/19 09:05:33;;;;;;;6.40;5.70;;;3.20;99.90;;;;;;5033910;28;20297;-77
2022/11/19 09:08:01;;;;;;;6.43;5.82;;;3.20;99.90;;;;;;5033873;28;20225;-77
2022/11/19 09:10:29;;;;;;;8.18;7.10;;;3.30;99.90;;;;;;5032657;28;20679;-77
2022/11/19 09:12:57;;;;;;;8.65;7.78;;;3.30;99.90;;;;;;5033466;28;20705;-77
2022/11/19 09:15:25;;;;;;;7.45;6.30;;;3.40;99.90;;;;;;5033535;28;20736;-81
2022/11/19 09:17:53;;;;;;;11.52;7.70;;;3.40;99.90;;;;;;5031322;28;20585;-80
2022/11/19 09:20:24;;;;;;;7.88;6.30;;;3.40;99.90;;;;;;5033543;28;20291;-80
2022/11/19 09:22:55;;;;;;;9.52;7.32;;;3.50;99.90;;;;;;5033991;28;20221;-81
2022/11/19 09:25:23;;;;;;;9.63;6.63;;;3.50;99.90;;;;;;5032750;28;20217;-76
2022/11/19 09:27:51;;;;;;;9.60;6.72;;;3.50;99.90;;;;;;5033693;28;20221;-77
2022/11/19 09:30:19;;;;;;;8.68;6.65;;;3.60;99.90;;;;;;5032182;28;20230;-80
2022/11/19 09:32:47;;;;;;;11.48;6.45;;;3.60;99.90;;;;;;5033972;28;20664;-76
2022/11/19 09:35:16;;;;;;;7.85;6.95;;;3.60;99.90;;;;;;5033075;28;20733;-77
2022/11/19 09:37:52;;;;;;;9.00;7.10;;;3.60;99.90;;;;;;5033369;28;20221;-77
2022/11/19 09:40:26;;;;;;;7.47;5.97;;;3.70;99.90;;;;;;5032835;28;20679;-81
2022/11/19 09:43:05;;;;;;;6.70;5.97;;;3.70;99.90;;;;;;5033935;28;20221;-77
2022/11/19 09:45:49;;;;;;;4.55;4.15;;;3.80;99.90;;;;;;5032139;28;20228;-81
2022/11/19 09:48:29;;;;;;;7.10;5.55;;;3.80;99.90;;;;;;5033710;28;20667;-81
2022/11/19 09:51:01;;;;;;;7.50;5.40;;;3.80;99.90;;;;;;5034076;28;20225;-82
2022/11/19 09:53:33;;;;;;;8.20;5.18;;;3.90;99.90;;;;;;5033371;28;20787;-81
2022/11/19 09:56:06;;;;;;;6.78;5.20;;;3.90;99.90;;;;;;5034547;28;20692;-77
2022/11/19 09:58:40;;;;;;;7.60;6.20;;;4.00;99.90;;;;;;5032881;28;20229;-78
2022/11/19 10:01:14;;;;;;;7.30;5.28;;;4.00;99.90;;;;;;5034206;28;20221;-77
2022/11/19 10:03:47;;;;;;;7.10;6.10;;;4.00;99.90;;;;;;5024657;28;20220;-77
2022/11/19 10:06:27;;;;;;;5.97;5.40;;;4.10;99.90;;;;;;5033380;28;20663;-77
2022/11/19 10:09:11;;;;;;;4.72;4.05;;;4.10;99.30;;;;;;5035853;28;20225;-81
2022/11/19 10:11:51;;;;;;;8.00;5.53;;;4.20;99.20;;;;;;5033688;28;20233;-81
2022/11/19 10:14:37;;;;;;;8.90;6.20;;;4.20;98.90;;;;;;5032887;28;20237;-82
2022/11/19 10:17:16;;;;;;;4.72;4.22;;;4.20;98.60;;;;;;5033166;28;20316;-82
2022/11/19 10:19:58;;;;;;;5.60;5.00;;;4.20;98.40;;;;;;5033017;28;20312;-81
2022/11/19 10:22:39;;;;;;;15.75;9.63;;;4.30;98.20;;;;;;5032910;28;20658;-81
2022/11/19 10:25:21;;;;;;;5.53;4.05;;;4.30;98.20;;;;;;5032407;28;20550;-81
2022/11/19 10:27:56;;;;;;;4.55;4.18;;;4.30;98.10;;;;;;5032385;28;20313;-82
2022/11/19 10:30:26;;;;;;;5.50;4.20;;;4.40;98.00;;;;;;5033577;28;20229;-80
2022/11/19 10:32:59;;;;;;;4.95;4.15;;;4.40;97.80;;;;;;5033005;28;20229;-79
2022/11/19 10:35:30;;;;;;;4.40;4.00;;;4.40;97.70;;;;;;5033566;28;20225;-81
2022/11/19 10:38:09;;;;;;;4.05;3.75;;;4.50;97.60;;;;;;5032253;28;20363;-77
2022/11/19 10:40:43;;;;;;;4.97;4.00;;;4.50;97.60;;;;;;5033373;28;20546;-81
2022/11/19 10:43:19;;;;;;;7.18;5.13;;;4.50;97.60;;;;;;5035430;28;20308;-81
2022/11/19 10:45:47;;;;;;;6.80;6.10;;;4.50;97.40;;;;;;5036124;28;20221;-80
2022/11/19 10:48:22;;;;;;;5.22;4.72;;;4.60;97.60;;;;;;5037211;28;20231;-81
2022/11/19 10:50:50;;;;;;;4.30;3.58;;;4.60;97.50;;;;;;5036039;28;20320;-80
2022/11/19 10:53:24;;;;;;;4.95;4.45;;;4.60;97.90;;;;;;5036272;28;20566;-81
2022/11/19 10:55:58;;;;;;;5.28;4.80;;;4.70;97.40;;;;;;5036431;28;20285;-80
2022/11/19 10:58:32;;;;;;;4.68;4.22;;;4.70;97.40;;;;;;5037504;28;20228;-77
2022/11/19 11:01:03;;;;;;;5.40;4.78;;;4.70;97.30;;;;;;5035546;28;20297;-77
2022/11/19 11:03:37;;;;;;;5.68;5.18;;;4.80;97.50;;;;;;5036219;28;20291;-77
2022/11/19 11:06:08;;;;;;;4.05;3.75;;;4.90;97.70;;;;;;5035176;28;20229;-76
2022/11/19 11:08:51;;;;;;;6.43;4.63;;;4.90;97.70;;;;;;5036487;28;20225;-77
2022/11/19 11:14:50;;;;;;;6.15;4.82;;;4.90;97.70;;;;;;5035183;28;20570;-77
2022/11/19 11:17:06;;;;;;;8.50;5.65;;;5.00;97.90;;;;;;5035956;28;20240;-80
2022/11/19 11:19:35;;;;;;;5.65;5.05;;;5.00;98.00;;;;;;5036350;28;20232;-81
2022/11/19 11:22:03;;;;;;;5.38;4.55;;;5.00;98.00;;;;;;5035412;28;20683;-80
2022/11/19 11:24:36;;;;;;;4.85;4.35;;;5.00;98.00;;;;;;5027341;28;20328;-80
2022/11/19 11:27:21;;;;;;;7.00;6.30;;;5.00;97.90;;;;;;5035548;28;20230;-79
2022/11/19 11:30:04;;;;;;;10.27;8.45;;;5.00;98.00;;;;;;5035688;28;20232;-77
2022/11/19 11:32:36;;;;;;;8.77;6.63;;;5.00;98.10;;;;;;5035425;28;20217;-80
2022/11/19 11:35:05;;;;;;;8.07;6.95;;;5.00;98.20;;;;;;5036120;28;20329;-80
2022/11/19 11:37:34;;;;;;;7.70;6.75;;;5.00;98.50;;;;;;5035505;28;20229;-80
2022/11/19 11:40:02;;;;;;;6.78;5.38;;;5.00;98.70;;;;;;5035230;28;20235;-76
2022/11/19 11:42:30;;;;;;;9.43;7.28;;;5.00;99.10;;;;;;5034944;28;20290;-76
2022/11/19 11:45:02;;;;;;;8.90;6.72;;;5.00;99.30;;;;;;5034922;28;20679;-80
2022/11/19 11:47:33;;;;;;;6.35;5.53;;;5.00;99.70;;;;;;5035178;28;20704;-77
2022/11/19 11:50:08;;;;;;;6.88;6.28;;;5.00;99.90;;;;;;5035708;28;20308;-77
2022/11/19 11:52:45;;;;;;;9.82;7.45;;;5.00;99.90;;;;;;5035024;28;20216;-77
2022/11/19 11:55:32;;;;;;;10.00;6.85;;;5.10;99.90;;;;;;5034604;28;20229;-77
2022/11/19 11:58:05;;;;;;;8.45;6.78;;;5.10;99.90;;;;;;5036055;28;20298;-80
2022/11/19 12:00:39;;;;;;;8.35;6.32;;;5.10;99.90;;;;;;5034379;28;20241;-76
2022/11/19 12:03:09;;;;;;;7.18;5.88;;;5.20;99.90;;;;;;5035080;28;20307;-76
2022/11/19 12:05:46;;;;;;;6.65;5.07;;;5.20;99.90;;;;;;5033535;28;20256;-77
2022/11/19 12:08:23;;;;;;;6.22;5.43;;;5.30;99.90;;;;;;5034513;28;20335;-77
2022/11/19 12:11:01;;;;;;;5.60;5.10;;;5.30;99.90;;;;;;5036070;28;20236;-80
2022/11/19 12:13:51;;;;;;;8.38;7.00;;;5.30;99.90;;;;;;5035139;28;20679;-81
2022/11/19 12:16:40;;;;;;;8.40;6.20;;;5.40;99.90;;;;;;5034736;28;20228;-80
2022/11/19 12:19:47;;;;;;;7.50;6.00;;;5.40;99.90;;;;;;5044454;28;20225;-80
2022/11/19 12:22:28;;;;;;;7.20;6.10;;;5.50;99.90;;;;;;5031640;28;20264;-80
2022/11/19 12:25:22;;;;;;;7.25;5.63;;;5.50;99.90;;;;;;5051916;28;20229;-81
2022/11/19 12:28:07;;;;;;;8.30;5.95;;;5.60;99.90;;;;;;5049690;28;20288;-77
2022/11/19 12:30:47;;;;;;;11.07;6.00;;;5.60;99.90;;;;;;5051715;28;20256;-79
2022/11/19 12:33:42;;;;;;;10.48;6.22;;;5.60;99.90;;;;;;5052591;28;20237;-79
2022/11/19 12:36:23;;;;;;;9.75;6.25;;;5.70;99.90;;;;;;5050308;28;20221;-77
2022/11/19 12:39:02;;;;;;;9.32;7.50;;;5.70;99.90;;;;;;5049955;28;20230;-76
2022/11/19 12:41:50;;;;;;;8.57;5.93;;;5.70;99.90;;;;;;5048167;28;20224;-77
2022/11/19 12:44:30;;;;;;;10.90;7.75;;;5.70;99.90;;;;;;5047384;28;20228;-76
2022/11/19 12:47:08;;;;;;;6.65;6.03;;;5.70;99.90;;;;;;5048037;28;20225;-77
2022/11/19 12:49:56;;;;;;;8.07;6.70;;;5.70;99.90;;;;;;5048819;28;20222;-77
2022/11/19 12:55:38;;;;;;;10.93;8.43;;;5.70;99.90;;;;;;5047540;28;20279;-77
2022/11/19 12:58:16;;;;;;;7.70;5.97;;;5.70;99.90;;;;;;5051445;28;20229;-77
2022/11/19 13:00:58;;;;;;;9.68;6.40;;;5.80;99.90;;;;;;5049351;28;20245;-76
2022/11/19 13:03:38;;;;;;;7.80;5.68;;;5.80;99.90;;;;;;5042412;28;20261;-77
2022/11/19 13:06:15;;;;;;;9.75;7.00;;;5.80;99.90;;;;;;5040797;28;20259;-76
2022/11/19 13:08:48;;;;;;;9.25;8.02;;;5.80;99.90;;;;;;5051817;28;20237;-76
2022/11/19 13:11:24;;;;;;;10.10;6.60;;;5.80;99.90;;;;;;5050309;28;20247;-77
2022/11/19 13:14:00;;;;;;;7.47;6.45;;;5.80;99.90;;;;;;5051538;28;20289;-81
2022/11/19 13:16:33;;;;;;;7.63;6.53;;;5.80;99.90;;;;;;5051040;28;20233;-79
2022/11/19 13:19:10;;;;;;;8.52;6.88;;;5.80;99.90;;;;;;5046695;28;20283;-81
2022/11/19 13:21:45;;;;;;;7.00;5.78;;;5.80;99.90;;;;;;5027282;28;20229;-77
2022/11/19 13:24:26;;;;;;;6.13;5.40;;;5.80;99.90;;;;;;5042159;28;20289;-76
2022/11/19 13:27:00;;;;;;;9.00;7.20;;;5.80;99.90;;;;;;5048501;28;20229;-76
2022/11/19 13:32:25;;;;;;;8.00;6.90;;;5.80;99.90;;;;;;5052240;28;20316;-80
2022/11/19 13:35:05;;;;;;;7.88;7.07;;;5.70;99.90;;;;;;5046038;28;20228;-77
2022/11/19 13:37:46;;;;;;;9.48;7.15;;;5.70;99.90;;;;;;5037783;28;20259;-77
2022/11/19 13:40:23;;;;;;;9.40;7.85;;;5.70;99.90;;;;;;5046464;28;20208;-76
2022/11/19 13:45:39;;;;;;;7.50;6.80;;;5.70;99.90;;;;;;5050619;28;20255;-78